sensor_id;sensor_type;location;lat;lon;timestamp;temperature;humidity
12622;DHT22;6376;48.182;-1.644;2023-04-06T00:00:56;13.30;77.20
12622;DHT22;6376;48.182;-1.644;2023-04-06T00:03:22;13.20;77.20
12622;DHT22;6376;48.182;-1.644;2023-04-06T00:05:48;13.30;77.20
12622;DHT22;6376;48.182;-1.644;2023-04-06T00:08:14;13.30;77.20
12622;DHT22;6376;48.182;-1.644;2023-04-06T00:10:40;13.30;77.20
12622;DHT22;6376;48.182;-1.644;2023-04-06T00:13:06;13.20;77.30
12622;DHT22;6376;48.182;-1.644;2023-04-06T00:15:32;13.20;77.40
12622;DHT22;6376;48.182;-1.644;2023-04-06T00:17:58;13.20;77.30
12622;DHT22;6376;48.182;-1.644;2023-04-06T00:20:24;13.20;77.40
12622;DHT22;6376;48.182;-1.644;2023-04-06T00:22:50;13.20;77.40
12622;DHT22;6376;48.182;-1.644;2023-04-06T00:25:16;13.20;77.40
12622;DHT22;6376;48.182;-1.644;2023-04-06T00:27:42;13.20;77.40
12622;DHT22;6376;48.182;-1.644;2023-04-06T00:30:08;13.20;77.40
12622;DHT22;6376;48.182;-1.644;2023-04-06T00:32:34;13.20;77.50
12622;DHT22;6376;48.182;-1.644;2023-04-06T00:35:05;13.20;77.50
12622;DHT22;6376;48.182;-1.644;2023-04-06T00:37:31;13.20;77.50
12622;DHT22;6376;48.182;-1.644;2023-04-06T00:39:57;13.20;77.50
12622;DHT22;6376;48.182;-1.644;2023-04-06T00:42:23;13.20;77.60
12622;DHT22;6376;48.182;-1.644;2023-04-06T00:44:56;13.20;77.60
12622;DHT22;6376;48.182;-1.644;2023-04-06T00:47:22;13.20;77.70
12622;DHT22;6376;48.182;-1.644;2023-04-06T00:49:50;13.20;77.70
12622;DHT22;6376;48.182;-1.644;2023-04-06T00:52:17;13.20;77.60
12622;DHT22;6376;48.182;-1.644;2023-04-06T00:54:43;13.20;77.70
12622;DHT22;6376;48.182;-1.644;2023-04-06T00:57:09;13.20;77.70
12622;DHT22;6376;48.182;-1.644;2023-04-06T00:59:35;13.20;77.70
12622;DHT22;6376;48.182;-1.644;2023-04-06T01:02:01;13.20;77.70
12622;DHT22;6376;48.182;-1.644;2023-04-06T01:04:27;13.20;77.70
12622;DHT22;6376;48.182;-1.644;2023-04-06T01:06:52;13.20;77.70
12622;DHT22;6376;48.182;-1.644;2023-04-06T01:09:18;13.20;77.80
12622;DHT22;6376;48.182;-1.644;2023-04-06T01:11:44;13.20;77.80
12622;DHT22;6376;48.182;-1.644;2023-04-06T01:14:09;13.20;77.80
12622;DHT22;6376;48.182;-1.644;2023-04-06T01:16:36;13.20;77.80
12622;DHT22;6376;48.182;-1.644;2023-04-06T01:19:11;13.20;77.80
12622;DHT22;6376;48.182;-1.644;2023-04-06T01:21:37;13.20;77.90
12622;DHT22;6376;48.182;-1.644;2023-04-06T01:24:03;13.20;77.90
12622;DHT22;6376;48.182;-1.644;2023-04-06T01:26:29;13.20;78.00
12622;DHT22;6376;48.182;-1.644;2023-04-06T01:28:56;13.20;78.00
12622;DHT22;6376;48.182;-1.644;2023-04-06T01:31:21;13.20;78.00
12622;DHT22;6376;48.182;-1.644;2023-04-06T01:33:47;13.20;78.00
12622;DHT22;6376;48.182;-1.644;2023-04-06T01:36:13;13.20;78.00
12622;DHT22;6376;48.182;-1.644;2023-04-06T01:38:40;13.20;78.00
12622;DHT22;6376;48.182;-1.644;2023-04-06T01:41:07;13.20;78.00
12622;DHT22;6376;48.182;-1.644;2023-04-06T01:43:33;13.20;78.00
12622;DHT22;6376;48.182;-1.644;2023-04-06T01:45:58;13.20;78.10
12622;DHT22;6376;48.182;-1.644;2023-04-06T01:48:25;13.10;78.80
12622;DHT22;6376;48.182;-1.644;2023-04-06T01:50:51;13.10;78.10
12622;DHT22;6376;48.182;-1.644;2023-04-06T01:53:16;13.10;78.10
12622;DHT22;6376;48.182;-1.644;2023-04-06T01:55:42;13.10;78.10
12622;DHT22;6376;48.182;-1.644;2023-04-06T01:58:07;13.10;78.10
12622;DHT22;6376;48.182;-1.644;2023-04-06T02:00:33;13.10;78.10
12622;DHT22;6376;48.182;-1.644;2023-04-06T02:02:59;13.10;78.20
12622;DHT22;6376;48.182;-1.644;2023-04-06T02:05:25;13.10;78.20
12622;DHT22;6376;48.182;-1.644;2023-04-06T02:07:51;13.10;78.20
12622;DHT22;6376;48.182;-1.644;2023-04-06T02:10:17;13.10;78.20
12622;DHT22;6376;48.182;-1.644;2023-04-06T02:12:43;13.10;78.30
12622;DHT22;6376;48.182;-1.644;2023-04-06T02:15:09;13.10;78.30
12622;DHT22;6376;48.182;-1.644;2023-04-06T02:17:35;13.10;78.30
12622;DHT22;6376;48.182;-1.644;2023-04-06T02:20:00;13.10;78.40
12622;DHT22;6376;48.182;-1.644;2023-04-06T02:22:26;13.10;78.40
12622;DHT22;6376;48.182;-1.644;2023-04-06T02:24:52;13.10;78.50
12622;DHT22;6376;48.182;-1.644;2023-04-06T02:27:17;13.10;78.40
12622;DHT22;6376;48.182;-1.644;2023-04-06T02:29:43;13.10;78.40
12622;DHT22;6376;48.182;-1.644;2023-04-06T02:32:08;13.10;78.40
12622;DHT22;6376;48.182;-1.644;2023-04-06T02:34:34;13.10;78.50
12622;DHT22;6376;48.182;-1.644;2023-04-06T02:37:00;13.10;78.50
12622;DHT22;6376;48.182;-1.644;2023-04-06T02:39:26;13.10;78.50
12622;DHT22;6376;48.182;-1.644;2023-04-06T02:41:51;13.10;78.50
12622;DHT22;6376;48.182;-1.644;2023-04-06T02:44:18;13.10;79.20
12622;DHT22;6376;48.182;-1.644;2023-04-06T02:46:43;13.10;78.50
12622;DHT22;6376;48.182;-1.644;2023-04-06T02:49:09;13.10;78.50
12622;DHT22;6376;48.182;-1.644;2023-04-06T02:51:35;13.10;78.50
12622;DHT22;6376;48.182;-1.644;2023-04-06T02:54:01;13.10;78.60
12622;DHT22;6376;48.182;-1.644;2023-04-06T02:56:26;13.10;78.60
12622;DHT22;6376;48.182;-1.644;2023-04-06T02:58:52;13.10;78.60
12622;DHT22;6376;48.182;-1.644;2023-04-06T03:01:17;13.10;78.60
12622;DHT22;6376;48.182;-1.644;2023-04-06T03:03:43;13.10;78.60
12622;DHT22;6376;48.182;-1.644;2023-04-06T03:06:09;13.10;78.60
12622;DHT22;6376;48.182;-1.644;2023-04-06T03:08:34;13.10;78.60
12622;DHT22;6376;48.182;-1.644;2023-04-06T03:11:00;13.10;78.70
12622;DHT22;6376;48.182;-1.644;2023-04-06T03:13:26;13.10;78.70
12622;DHT22;6376;48.182;-1.644;2023-04-06T03:15:52;13.10;78.70
12622;DHT22;6376;48.182;-1.644;2023-04-06T03:18:24;13.10;78.70
12622;DHT22;6376;48.182;-1.644;2023-04-06T03:20:51;13.10;78.70
12622;DHT22;6376;48.182;-1.644;2023-04-06T03:23:19;13.10;78.70
12622;DHT22;6376;48.182;-1.644;2023-04-06T03:25:46;13.00;78.70
12622;DHT22;6376;48.182;-1.644;2023-04-06T03:28:12;13.00;78.70
12622;DHT22;6376;48.182;-1.644;2023-04-06T03:30:37;13.00;78.80
12622;DHT22;6376;48.182;-1.644;2023-04-06T03:33:03;13.00;78.80
12622;DHT22;6376;48.182;-1.644;2023-04-06T03:35:29;13.00;78.80
12622;DHT22;6376;48.182;-1.644;2023-04-06T03:37:54;13.00;78.80
12622;DHT22;6376;48.182;-1.644;2023-04-06T03:40:20;13.00;78.80
12622;DHT22;6376;48.182;-1.644;2023-04-06T03:42:46;13.00;78.80
12622;DHT22;6376;48.182;-1.644;2023-04-06T03:45:12;13.00;78.80
12622;DHT22;6376;48.182;-1.644;2023-04-06T03:47:40;13.00;78.80
12622;DHT22;6376;48.182;-1.644;2023-04-06T03:50:06;13.00;78.80
12622;DHT22;6376;48.182;-1.644;2023-04-06T03:52:32;13.00;78.90
12622;DHT22;6376;48.182;-1.644;2023-04-06T03:54:57;13.00;78.90
12622;DHT22;6376;48.182;-1.644;2023-04-06T03:57:23;13.00;78.90
12622;DHT22;6376;48.182;-1.644;2023-04-06T03:59:49;13.00;78.90
12622;DHT22;6376;48.182;-1.644;2023-04-06T04:02:15;13.00;78.90
12622;DHT22;6376;48.182;-1.644;2023-04-06T04:04:40;13.00;78.90
12622;DHT22;6376;48.182;-1.644;2023-04-06T04:07:06;13.00;78.90
12622;DHT22;6376;48.182;-1.644;2023-04-06T04:09:32;13.00;78.90
12622;DHT22;6376;48.182;-1.644;2023-04-06T04:11:57;13.00;78.90
12622;DHT22;6376;48.182;-1.644;2023-04-06T04:14:23;13.00;78.90
12622;DHT22;6376;48.182;-1.644;2023-04-06T04:16:49;13.00;78.90
12622;DHT22;6376;48.182;-1.644;2023-04-06T04:19:14;13.00;79.10
12622;DHT22;6376;48.182;-1.644;2023-04-06T04:21:44;13.00;79.10
12622;DHT22;6376;48.182;-1.644;2023-04-06T04:24:10;13.00;79.00
12622;DHT22;6376;48.182;-1.644;2023-04-06T04:26:37;13.00;79.00
12622;DHT22;6376;48.182;-1.644;2023-04-06T04:29:03;13.00;79.10
12622;DHT22;6376;48.182;-1.644;2023-04-06T04:31:29;13.00;79.00
12622;DHT22;6376;48.182;-1.644;2023-04-06T04:33:55;13.00;79.10
12622;DHT22;6376;48.182;-1.644;2023-04-06T04:36:21;13.00;79.10
12622;DHT22;6376;48.182;-1.644;2023-04-06T04:38:47;13.00;79.10
12622;DHT22;6376;48.182;-1.644;2023-04-06T04:41:13;13.00;79.10
12622;DHT22;6376;48.182;-1.644;2023-04-06T04:43:38;13.20;80.00
12622;DHT22;6376;48.182;-1.644;2023-04-06T04:46:04;13.00;79.10
12622;DHT22;6376;48.182;-1.644;2023-04-06T04:48:30;13.00;79.10
12622;DHT22;6376;48.182;-1.644;2023-04-06T04:50:56;13.00;79.10
12622;DHT22;6376;48.182;-1.644;2023-04-06T04:53:22;13.00;79.20
12622;DHT22;6376;48.182;-1.644;2023-04-06T04:55:48;13.00;79.20
12622;DHT22;6376;48.182;-1.644;2023-04-06T04:58:13;13.00;79.20
12622;DHT22;6376;48.182;-1.644;2023-04-06T05:00:43;13.00;79.20
12622;DHT22;6376;48.182;-1.644;2023-04-06T05:03:09;13.00;79.20
12622;DHT22;6376;48.182;-1.644;2023-04-06T05:05:39;13.00;79.30
12622;DHT22;6376;48.182;-1.644;2023-04-06T05:08:04;13.00;79.30
12622;DHT22;6376;48.182;-1.644;2023-04-06T05:10:30;13.00;79.30
12622;DHT22;6376;48.182;-1.644;2023-04-06T05:12:56;12.90;79.20
12622;DHT22;6376;48.182;-1.644;2023-04-06T05:15:22;13.00;79.30
12622;DHT22;6376;48.182;-1.644;2023-04-06T05:17:47;12.90;79.20
12622;DHT22;6376;48.182;-1.644;2023-04-06T05:20:13;12.90;79.20
12622;DHT22;6376;48.182;-1.644;2023-04-06T05:22:39;12.90;79.30
12622;DHT22;6376;48.182;-1.644;2023-04-06T05:25:05;12.90;79.30
12622;DHT22;6376;48.182;-1.644;2023-04-06T05:27:31;12.90;79.30
12622;DHT22;6376;48.182;-1.644;2023-04-06T05:29:57;12.90;79.30
12622;DHT22;6376;48.182;-1.644;2023-04-06T05:32:22;12.90;79.30
12622;DHT22;6376;48.182;-1.644;2023-04-06T05:34:50;12.90;79.40
12622;DHT22;6376;48.182;-1.644;2023-04-06T05:37:16;12.90;79.40
12622;DHT22;6376;48.182;-1.644;2023-04-06T05:39:41;12.90;79.40
12622;DHT22;6376;48.182;-1.644;2023-04-06T05:42:07;12.90;79.40
12622;DHT22;6376;48.182;-1.644;2023-04-06T05:44:33;12.90;79.50
12622;DHT22;6376;48.182;-1.644;2023-04-06T05:46:58;12.90;79.40
12622;DHT22;6376;48.182;-1.644;2023-04-06T05:49:24;12.90;79.50
12622;DHT22;6376;48.182;-1.644;2023-04-06T05:51:50;12.90;79.50
12622;DHT22;6376;48.182;-1.644;2023-04-06T05:54:16;12.90;79.50
12622;DHT22;6376;48.182;-1.644;2023-04-06T05:56:41;12.90;79.50
12622;DHT22;6376;48.182;-1.644;2023-04-06T05:59:07;12.90;79.50
12622;DHT22;6376;48.182;-1.644;2023-04-06T06:01:33;12.90;79.60
12622;DHT22;6376;48.182;-1.644;2023-04-06T06:04:01;12.90;79.60
12622;DHT22;6376;48.182;-1.644;2023-04-06T06:06:27;12.90;79.60
12622;DHT22;6376;48.182;-1.644;2023-04-06T06:08:54;12.90;79.70
12622;DHT22;6376;48.182;-1.644;2023-04-06T06:11:19;12.90;79.70
12622;DHT22;6376;48.182;-1.644;2023-04-06T06:13:45;12.90;79.50
12622;DHT22;6376;48.182;-1.644;2023-04-06T06:16:11;12.90;79.60
12622;DHT22;6376;48.182;-1.644;2023-04-06T06:18:36;12.90;79.60
12622;DHT22;6376;48.182;-1.644;2023-04-06T06:21:02;12.90;79.60
12622;DHT22;6376;48.182;-1.644;2023-04-06T06:23:28;12.90;79.70
12622;DHT22;6376;48.182;-1.644;2023-04-06T06:25:54;12.90;79.50
12622;DHT22;6376;48.182;-1.644;2023-04-06T06:28:21;12.90;79.50
12622;DHT22;6376;48.182;-1.644;2023-04-06T06:30:47;12.90;79.50
12622;DHT22;6376;48.182;-1.644;2023-04-06T06:33:13;12.90;79.50
12622;DHT22;6376;48.182;-1.644;2023-04-06T06:35:39;12.90;79.60
12622;DHT22;6376;48.182;-1.644;2023-04-06T06:38:04;12.90;79.60
12622;DHT22;6376;48.182;-1.644;2023-04-06T06:40:30;12.90;79.60
12622;DHT22;6376;48.182;-1.644;2023-04-06T06:42:56;12.90;79.50
12622;DHT22;6376;48.182;-1.644;2023-04-06T06:45:22;12.90;79.50
12622;DHT22;6376;48.182;-1.644;2023-04-06T06:47:47;13.00;79.60
12622;DHT22;6376;48.182;-1.644;2023-04-06T06:50:13;13.00;79.60
12622;DHT22;6376;48.182;-1.644;2023-04-06T06:52:39;13.00;79.70
12622;DHT22;6376;48.182;-1.644;2023-04-06T06:55:05;13.00;79.40
12622;DHT22;6376;48.182;-1.644;2023-04-06T06:57:31;13.00;79.50
12622;DHT22;6376;48.182;-1.644;2023-04-06T06:59:57;13.00;79.50
12622;DHT22;6376;48.182;-1.644;2023-04-06T07:02:25;13.00;79.50
12622;DHT22;6376;48.182;-1.644;2023-04-06T07:04:50;13.00;79.50
12622;DHT22;6376;48.182;-1.644;2023-04-06T07:07:16;13.00;79.40
12622;DHT22;6376;48.182;-1.644;2023-04-06T07:09:42;13.00;79.40
12622;DHT22;6376;48.182;-1.644;2023-04-06T07:12:07;13.00;79.50
12622;DHT22;6376;48.182;-1.644;2023-04-06T07:14:33;13.00;79.50
12622;DHT22;6376;48.182;-1.644;2023-04-06T07:16:59;13.00;79.50
12622;DHT22;6376;48.182;-1.644;2023-04-06T07:19:24;13.00;79.50
12622;DHT22;6376;48.182;-1.644;2023-04-06T07:21:50;13.00;79.50
12622;DHT22;6376;48.182;-1.644;2023-04-06T07:24:16;13.00;79.50
12622;DHT22;6376;48.182;-1.644;2023-04-06T07:26:42;13.00;79.60
12622;DHT22;6376;48.182;-1.644;2023-04-06T07:29:07;13.00;80.30
12622;DHT22;6376;48.182;-1.644;2023-04-06T07:31:33;13.00;79.60
12622;DHT22;6376;48.182;-1.644;2023-04-06T07:34:00;13.00;79.60
12622;DHT22;6376;48.182;-1.644;2023-04-06T07:36:26;13.00;79.70
12622;DHT22;6376;48.182;-1.644;2023-04-06T07:38:52;13.00;79.70
12622;DHT22;6376;48.182;-1.644;2023-04-06T07:41:18;13.00;79.60
12622;DHT22;6376;48.182;-1.644;2023-04-06T07:43:43;13.00;79.60
12622;DHT22;6376;48.182;-1.644;2023-04-06T07:46:09;13.00;79.70
12622;DHT22;6376;48.182;-1.644;2023-04-06T07:48:35;13.00;79.60
12622;DHT22;6376;48.182;-1.644;2023-04-06T07:51:03;13.00;79.70
12622;DHT22;6376;48.182;-1.644;2023-04-06T07:53:30;13.00;79.60
12622;DHT22;6376;48.182;-1.644;2023-04-06T07:55:57;13.00;79.70
12622;DHT22;6376;48.182;-1.644;2023-04-06T07:58:22;13.00;79.60
12622;DHT22;6376;48.182;-1.644;2023-04-06T08:00:48;13.00;79.70
12622;DHT22;6376;48.182;-1.644;2023-04-06T08:03:14;13.00;79.70
12622;DHT22;6376;48.182;-1.644;2023-04-06T08:05:39;13.00;79.70
12622;DHT22;6376;48.182;-1.644;2023-04-06T08:08:05;13.00;79.70
12622;DHT22;6376;48.182;-1.644;2023-04-06T08:10:31;13.00;79.60
12622;DHT22;6376;48.182;-1.644;2023-04-06T08:12:56;13.00;79.60
12622;DHT22;6376;48.182;-1.644;2023-04-06T08:15:22;13.00;79.50
12622;DHT22;6376;48.182;-1.644;2023-04-06T08:17:48;13.00;79.50
12622;DHT22;6376;48.182;-1.644;2023-04-06T08:20:13;13.00;79.60
12622;DHT22;6376;48.182;-1.644;2023-04-06T08:22:39;13.00;79.70
12622;DHT22;6376;48.182;-1.644;2023-04-06T08:25:05;13.00;79.50
12622;DHT22;6376;48.182;-1.644;2023-04-06T08:27:31;13.00;79.60
12622;DHT22;6376;48.182;-1.644;2023-04-06T08:29:56;13.00;79.50
12622;DHT22;6376;48.182;-1.644;2023-04-06T08:32:25;13.10;79.60
12622;DHT22;6376;48.182;-1.644;2023-04-06T08:34:53;13.10;79.50
12622;DHT22;6376;48.182;-1.644;2023-04-06T08:37:19;13.10;79.50
12622;DHT22;6376;48.182;-1.644;2023-04-06T08:39:45;13.00;79.50
12622;DHT22;6376;48.182;-1.644;2023-04-06T08:42:19;13.00;79.50
12622;DHT22;6376;48.182;-1.644;2023-04-06T08:44:46;13.00;79.50
12622;DHT22;6376;48.182;-1.644;2023-04-06T08:47:13;13.00;79.60
12622;DHT22;6376;48.182;-1.644;2023-04-06T08:49:40;13.00;79.50
12622;DHT22;6376;48.182;-1.644;2023-04-06T08:52:07;13.00;79.50
12622;DHT22;6376;48.182;-1.644;2023-04-06T08:54:34;13.10;79.70
12622;DHT22;6376;48.182;-1.644;2023-04-06T08:57:00;13.10;79.60
12622;DHT22;6376;48.182;-1.644;2023-04-06T08:59:27;13.10;79.70
12622;DHT22;6376;48.182;-1.644;2023-04-06T09:01:53;13.10;79.50
12622;DHT22;6376;48.182;-1.644;2023-04-06T09:04:20;13.10;79.40
12622;DHT22;6376;48.182;-1.644;2023-04-06T09:06:45;13.10;79.40
12622;DHT22;6376;48.182;-1.644;2023-04-06T09:09:11;13.10;79.50
12622;DHT22;6376;48.182;-1.644;2023-04-06T09:11:51;13.10;79.50
12622;DHT22;6376;48.182;-1.644;2023-04-06T09:14:32;13.10;79.50
12622;DHT22;6376;48.182;-1.644;2023-04-06T09:16:58;13.10;79.50
12622;DHT22;6376;48.182;-1.644;2023-04-06T09:19:23;13.10;79.50
12622;DHT22;6376;48.182;-1.644;2023-04-06T09:21:49;13.10;79.50
12622;DHT22;6376;48.182;-1.644;2023-04-06T09:24:15;13.10;79.40
12622;DHT22;6376;48.182;-1.644;2023-04-06T09:26:46;13.10;79.50
12622;DHT22;6376;48.182;-1.644;2023-04-06T09:29:25;13.10;79.50
12622;DHT22;6376;48.182;-1.644;2023-04-06T09:31:51;13.10;79.50
12622;DHT22;6376;48.182;-1.644;2023-04-06T09:34:21;13.10;79.50
12622;DHT22;6376;48.182;-1.644;2023-04-06T09:36:48;13.10;79.50
12622;DHT22;6376;48.182;-1.644;2023-04-06T09:39:14;13.10;79.40
12622;DHT22;6376;48.182;-1.644;2023-04-06T09:41:40;13.10;79.40
12622;DHT22;6376;48.182;-1.644;2023-04-06T09:44:07;13.20;79.40
12622;DHT22;6376;48.182;-1.644;2023-04-06T09:46:38;13.20;79.40
12622;DHT22;6376;48.182;-1.644;2023-04-06T09:49:06;13.10;79.30
12622;DHT22;6376;48.182;-1.644;2023-04-06T09:51:37;13.20;79.40
12622;DHT22;6376;48.182;-1.644;2023-04-06T09:54:03;13.20;79.40
12622;DHT22;6376;48.182;-1.644;2023-04-06T09:56:46;13.20;79.40
12622;DHT22;6376;48.182;-1.644;2023-04-06T09:59:17;13.20;80.20
12622;DHT22;6376;48.182;-1.644;2023-04-06T10:01:46;13.20;79.30
12622;DHT22;6376;48.182;-1.644;2023-04-06T10:06:47;13.20;79.20
12622;DHT22;6376;48.182;-1.644;2023-04-06T10:09:18;13.20;79.30
12622;DHT22;6376;48.182;-1.644;2023-04-06T10:11:47;13.40;79.00
12622;DHT22;6376;48.182;-1.644;2023-04-06T10:14:15;13.60;78.00
12622;DHT22;6376;48.182;-1.644;2023-04-06T10:16:41;13.90;76.80
12622;DHT22;6376;48.182;-1.644;2023-04-06T10:19:13;14.00;76.30
12622;DHT22;6376;48.182;-1.644;2023-04-06T10:21:41;14.30;75.80
12622;DHT22;6376;48.182;-1.644;2023-04-06T10:24:10;14.30;74.80
12622;DHT22;6376;48.182;-1.644;2023-04-06T10:26:37;14.40;75.20
12622;DHT22;6376;48.182;-1.644;2023-04-06T10:29:04;14.50;74.20
12622;DHT22;6376;48.182;-1.644;2023-04-06T10:31:30;14.40;74.30
12622;DHT22;6376;48.182;-1.644;2023-04-06T10:33:56;14.40;74.30
12622;DHT22;6376;48.182;-1.644;2023-04-06T10:36:25;14.50;74.20
12622;DHT22;6376;48.182;-1.644;2023-04-06T10:39:02;14.40;74.20
12622;DHT22;6376;48.182;-1.644;2023-04-06T10:41:35;14.50;74.50
12622;DHT22;6376;48.182;-1.644;2023-04-06T10:44:01;14.50;74.10
12622;DHT22;6376;48.182;-1.644;2023-04-06T10:46:29;14.50;74.20
12622;DHT22;6376;48.182;-1.644;2023-04-06T10:48:56;14.30;74.40
12622;DHT22;6376;48.182;-1.644;2023-04-06T10:51:27;14.30;74.80
12622;DHT22;6376;48.182;-1.644;2023-04-06T10:53:53;14.20;75.00
12622;DHT22;6376;48.182;-1.644;2023-04-06T10:56:22;14.20;75.40
12622;DHT22;6376;48.182;-1.644;2023-04-06T10:58:52;14.10;75.60
12622;DHT22;6376;48.182;-1.644;2023-04-06T11:01:20;14.10;75.60
12622;DHT22;6376;48.182;-1.644;2023-04-06T11:03:52;14.10;75.70
12622;DHT22;6376;48.182;-1.644;2023-04-06T11:08:45;14.10;75.80
12622;DHT22;6376;48.182;-1.644;2023-04-06T11:11:13;14.00;76.00
12622;DHT22;6376;48.182;-1.644;2023-04-06T11:16:19;14.00;75.80
12622;DHT22;6376;48.182;-1.644;2023-04-06T11:18:50;14.10;76.30
12622;DHT22;6376;48.182;-1.644;2023-04-06T11:21:16;14.10;76.50
12622;DHT22;6376;48.182;-1.644;2023-04-06T11:23:42;14.10;76.00
12622;DHT22;6376;48.182;-1.644;2023-04-06T11:26:14;14.10;75.80
12622;DHT22;6376;48.182;-1.644;2023-04-06T11:28:43;14.20;75.70
12622;DHT22;6376;48.182;-1.644;2023-04-06T11:31:11;14.20;75.60
12622;DHT22;6376;48.182;-1.644;2023-04-06T11:33:38;14.20;75.50
12622;DHT22;6376;48.182;-1.644;2023-04-06T11:36:06;14.20;75.50
12622;DHT22;6376;48.182;-1.644;2023-04-06T11:38:32;14.20;75.20
12622;DHT22;6376;48.182;-1.644;2023-04-06T11:40:58;14.30;75.00
12622;DHT22;6376;48.182;-1.644;2023-04-06T11:43:30;14.30;75.10
12622;DHT22;6376;48.182;-1.644;2023-04-06T11:46:00;14.20;75.10
12622;DHT22;6376;48.182;-1.644;2023-04-06T11:48:27;14.20;75.20
12622;DHT22;6376;48.182;-1.644;2023-04-06T11:50:59;14.30;75.10
12622;DHT22;6376;48.182;-1.644;2023-04-06T11:53:29;14.30;75.10
12622;DHT22;6376;48.182;-1.644;2023-04-06T11:55:56;14.20;75.20
12622;DHT22;6376;48.182;-1.644;2023-04-06T11:58:22;14.20;75.20
12622;DHT22;6376;48.182;-1.644;2023-04-06T12:00:47;14.20;75.40
12622;DHT22;6376;48.182;-1.644;2023-04-06T12:03:13;14.20;75.40
12622;DHT22;6376;48.182;-1.644;2023-04-06T12:05:39;14.20;75.50
12622;DHT22;6376;48.182;-1.644;2023-04-06T12:08:05;14.20;75.50
12622;DHT22;6376;48.182;-1.644;2023-04-06T12:10:30;14.20;75.50
12622;DHT22;6376;48.182;-1.644;2023-04-06T12:12:56;14.20;75.40
12622;DHT22;6376;48.182;-1.644;2023-04-06T12:15:22;14.20;75.40
12622;DHT22;6376;48.182;-1.644;2023-04-06T12:17:48;14.20;75.60
12622;DHT22;6376;48.182;-1.644;2023-04-06T12:20:15;14.10;75.70
12622;DHT22;6376;48.182;-1.644;2023-04-06T12:22:40;14.10;76.50
12622;DHT22;6376;48.182;-1.644;2023-04-06T12:25:06;14.10;75.80
12622;DHT22;6376;48.182;-1.644;2023-04-06T12:27:32;14.10;75.90
12622;DHT22;6376;48.182;-1.644;2023-04-06T12:29:58;14.10;76.10
12622;DHT22;6376;48.182;-1.644;2023-04-06T12:32:24;14.10;76.00
12622;DHT22;6376;48.182;-1.644;2023-04-06T12:34:52;14.10;76.00
12622;DHT22;6376;48.182;-1.644;2023-04-06T12:37:17;14.10;76.10
12622;DHT22;6376;48.182;-1.644;2023-04-06T12:39:43;14.00;76.10
12622;DHT22;6376;48.182;-1.644;2023-04-06T12:42:10;14.00;76.20
12622;DHT22;6376;48.182;-1.644;2023-04-06T12:44:36;14.00;76.30
12622;DHT22;6376;48.182;-1.644;2023-04-06T12:47:02;14.00;76.30
12622;DHT22;6376;48.182;-1.644;2023-04-06T12:49:28;14.00;76.30
12622;DHT22;6376;48.182;-1.644;2023-04-06T12:51:53;14.00;76.60
12622;DHT22;6376;48.182;-1.644;2023-04-06T12:54:19;14.00;76.60
12622;DHT22;6376;48.182;-1.644;2023-04-06T12:56:45;14.00;76.70
12622;DHT22;6376;48.182;-1.644;2023-04-06T12:59:11;14.00;76.70
12622;DHT22;6376;48.182;-1.644;2023-04-06T13:01:37;14.00;76.60
12622;DHT22;6376;48.182;-1.644;2023-04-06T13:04:02;14.10;76.70
12622;DHT22;6376;48.182;-1.644;2023-04-06T13:06:28;14.10;76.60
12622;DHT22;6376;48.182;-1.644;2023-04-06T13:08:55;14.10;76.40
12622;DHT22;6376;48.182;-1.644;2023-04-06T13:11:21;14.10;76.40
12622;DHT22;6376;48.182;-1.644;2023-04-06T13:13:49;14.10;76.40
12622;DHT22;6376;48.182;-1.644;2023-04-06T13:16:15;14.10;76.30
12622;DHT22;6376;48.182;-1.644;2023-04-06T13:18:41;14.20;76.30
12622;DHT22;6376;48.182;-1.644;2023-04-06T13:21:07;14.20;76.10
12622;DHT22;6376;48.182;-1.644;2023-04-06T13:23:34;14.20;76.10
12622;DHT22;6376;48.182;-1.644;2023-04-06T13:26:04;14.20;76.00
12622;DHT22;6376;48.182;-1.644;2023-04-06T13:28:31;14.20;75.80
12622;DHT22;6376;48.182;-1.644;2023-04-06T13:30:59;14.20;75.90
12622;DHT22;6376;48.182;-1.644;2023-04-06T13:33:25;14.20;75.80
12622;DHT22;6376;48.182;-1.644;2023-04-06T13:35:51;14.20;75.70
12622;DHT22;6376;48.182;-1.644;2023-04-06T13:38:17;14.20;75.60
12622;DHT22;6376;48.182;-1.644;2023-04-06T13:40:43;14.20;75.70
12622;DHT22;6376;48.182;-1.644;2023-04-06T13:43:09;14.20;75.60
12622;DHT22;6376;48.182;-1.644;2023-04-06T13:45:36;14.20;75.50
12622;DHT22;6376;48.182;-1.644;2023-04-06T13:48:02;14.20;75.50
12622;DHT22;6376;48.182;-1.644;2023-04-06T13:50:27;14.20;75.50
12622;DHT22;6376;48.182;-1.644;2023-04-06T13:52:53;14.20;75.60
12622;DHT22;6376;48.182;-1.644;2023-04-06T13:55:19;14.20;75.70
12622;DHT22;6376;48.182;-1.644;2023-04-06T13:57:44;14.20;75.80
12622;DHT22;6376;48.182;-1.644;2023-04-06T14:00:11;14.20;76.00
12622;DHT22;6376;48.182;-1.644;2023-04-06T14:02:38;14.10;76.10
12622;DHT22;6376;48.182;-1.644;2023-04-06T14:05:05;14.10;76.10
12622;DHT22;6376;48.182;-1.644;2023-04-06T14:07:31;14.10;76.10
12622;DHT22;6376;48.182;-1.644;2023-04-06T14:09:56;14.10;76.30
12622;DHT22;6376;48.182;-1.644;2023-04-06T14:12:22;14.10;76.50
12622;DHT22;6376;48.182;-1.644;2023-04-06T14:14:47;14.10;76.60
12622;DHT22;6376;48.182;-1.644;2023-04-06T14:17:13;14.10;76.60
12622;DHT22;6376;48.182;-1.644;2023-04-06T14:19:39;14.10;76.60
12622;DHT22;6376;48.182;-1.644;2023-04-06T14:22:05;14.10;76.80
12622;DHT22;6376;48.182;-1.644;2023-04-06T14:24:31;14.00;76.90
12622;DHT22;6376;48.182;-1.644;2023-04-06T14:26:57;14.00;76.70
12622;DHT22;6376;48.182;-1.644;2023-04-06T14:29:23;14.00;75.70
12622;DHT22;6376;48.182;-1.644;2023-04-06T14:31:49;13.90;75.80
12622;DHT22;6376;48.182;-1.644;2023-04-06T14:34:15;13.90;76.40
12622;DHT22;6376;48.182;-1.644;2023-04-06T14:36:42;14.00;77.50
12622;DHT22;6376;48.182;-1.644;2023-04-06T14:39:07;14.00;77.30
12622;DHT22;6376;48.182;-1.644;2023-04-06T14:41:33;14.00;77.30
12622;DHT22;6376;48.182;-1.644;2023-04-06T14:44:00;14.00;77.30
12622;DHT22;6376;48.182;-1.644;2023-04-06T14:46:26;14.10;77.40
12622;DHT22;6376;48.182;-1.644;2023-04-06T14:48:56;14.00;77.10
12622;DHT22;6376;48.182;-1.644;2023-04-06T14:51:24;14.00;77.00
12622;DHT22;6376;48.182;-1.644;2023-04-06T14:53:52;14.00;77.20
12622;DHT22;6376;48.182;-1.644;2023-04-06T14:56:22;14.00;77.40
12622;DHT22;6376;48.182;-1.644;2023-04-06T14:58:48;14.00;77.50
12622;DHT22;6376;48.182;-1.644;2023-04-06T15:01:15;14.00;77.30
12622;DHT22;6376;48.182;-1.644;2023-04-06T15:03:41;14.00;77.60
12622;DHT22;6376;48.182;-1.644;2023-04-06T15:06:12;14.00;77.60
12622;DHT22;6376;48.182;-1.644;2023-04-06T15:08:38;14.10;77.50
12622;DHT22;6376;48.182;-1.644;2023-04-06T15:11:04;14.10;77.30
12622;DHT22;6376;48.182;-1.644;2023-04-06T15:13:30;14.10;77.10
12622;DHT22;6376;48.182;-1.644;2023-04-06T15:15:55;14.10;77.00
12622;DHT22;6376;48.182;-1.644;2023-04-06T15:18:21;14.10;77.60
12622;DHT22;6376;48.182;-1.644;2023-04-06T15:20:47;14.20;76.90
12622;DHT22;6376;48.182;-1.644;2023-04-06T15:23:13;14.20;76.40
12622;DHT22;6376;48.182;-1.644;2023-04-06T15:25:38;14.20;76.30
12622;DHT22;6376;48.182;-1.644;2023-04-06T15:28:06;14.20;76.20
12622;DHT22;6376;48.182;-1.644;2023-04-06T15:30:32;14.20;76.20
12622;DHT22;6376;48.182;-1.644;2023-04-06T15:32:59;14.20;76.00